createdAt,value
2022-11-24T00:00:59.632Z,91.14
2022-11-24T00:01:59.665Z,91.12
2022-11-24T00:02:59.623Z,91.13
2022-11-24T00:03:59.588Z,91.09
2022-11-24T00:04:59.615Z,91.08
2022-11-24T00:05:59.590Z,91.08
2022-11-24T00:06:59.528Z,91.08
2022-11-24T00:07:59.542Z,91.07
2022-11-24T00:08:59.570Z,91.06
2022-11-24T00:10:00.445Z,91.07
2022-11-24T00:10:59.534Z,91.08
2022-11-24T00:12:00.368Z,91.09
2022-11-24T00:12:59.543Z,91.13
2022-11-24T00:13:59.496Z,91.13
2022-11-24T00:14:59.455Z,91.14
2022-11-24T00:15:59.451Z,91.12
2022-11-24T00:16:59.510Z,91.17
2022-11-24T00:17:59.477Z,91.20
2022-11-24T00:18:59.453Z,91.19
2022-11-24T00:19:59.457Z,91.17
2022-11-24T00:20:59.440Z,91.18
2022-11-24T00:21:59.431Z,91.15
2022-11-24T00:22:59.380Z,91.13
2022-11-24T00:23:59.364Z,91.11
2022-11-24T00:24:59.408Z,91.12
2022-11-24T00:25:59.351Z,91.11
2022-11-24T00:26:59.389Z,91.15
2022-11-24T00:27:59.337Z,91.15
2022-11-24T00:28:59.346Z,91.20
2022-11-24T00:29:59.330Z,91.23
2022-11-24T00:30:59.392Z,91.26
2022-11-24T00:31:59.363Z,91.28
2022-11-24T00:32:59.316Z,91.30
2022-11-24T00:33:59.268Z,91.30
2022-11-24T00:34:59.326Z,91.33
2022-11-24T00:35:59.277Z,91.33
2022-11-24T00:36:59.250Z,91.31
2022-11-24T00:37:59.307Z,91.28
2022-11-24T00:38:59.242Z,91.24
2022-11-24T00:39:59.212Z,91.22
2022-11-24T00:40:59.213Z,91.23
2022-11-24T00:41:59.224Z,91.25
2022-11-24T00:42:59.176Z,91.25
2022-11-24T00:43:59.201Z,91.25
2022-11-24T00:44:59.190Z,91.26
2022-11-24T00:45:59.234Z,91.29
2022-11-24T00:46:59.283Z,91.37
2022-11-24T00:47:59.149Z,91.44
2022-11-24T00:48:59.203Z,91.48
2022-11-24T00:49:59.177Z,91.51
2022-11-24T00:50:59.130Z,91.54
2022-11-24T00:51:59.145Z,91.51
2022-11-24T00:52:59.152Z,91.51
2022-11-24T00:53:59.144Z,91.51
2022-11-24T00:54:59.140Z,91.51
2022-11-24T00:55:59.054Z,91.54
2022-11-24T00:56:59.048Z,91.54
2022-11-24T00:57:59.022Z,91.54
2022-11-24T00:58:59.031Z,91.54
2022-11-24T00:59:59.023Z,91.57
2022-11-24T01:00:59.038Z,91.57
2022-11-24T01:01:59.062Z,91.58
2022-11-24T01:02:59.059Z,91.60
2022-11-24T01:03:59.003Z,91.63
2022-11-24T01:04:59.021Z,91.64
2022-11-24T01:05:58.977Z,91.65
2022-11-24T01:06:58.935Z,91.64
2022-11-24T01:07:58.949Z,91.63
2022-11-24T01:08:58.927Z,91.66
2022-11-24T01:09:58.936Z,91.73
2022-11-24T01:10:58.910Z,91.77
2022-11-24T01:11:58.916Z,91.83
2022-11-24T01:12:58.896Z,91.86
2022-11-24T01:13:58.923Z,91.89
2022-11-24T01:14:58.880Z,91.92
2022-11-24T01:15:58.918Z,91.95
2022-11-24T01:16:58.885Z,91.96
2022-11-24T01:17:58.830Z,91.97
2022-11-24T01:18:58.816Z,91.95
2022-11-24T01:19:58.911Z,91.95
2022-11-24T01:20:58.852Z,91.90
2022-11-24T01:21:58.828Z,91.88
2022-11-24T01:22:58.783Z,91.84
2022-11-24T01:23:58.842Z,91.80
2022-11-24T01:24:58.796Z,91.75
2022-11-24T01:25:58.773Z,91.73
2022-11-24T01:26:58.778Z,91.72
2022-11-24T01:27:58.742Z,91.67
2022-11-24T01:28:58.745Z,91.66
2022-11-24T01:29:58.790Z,91.63
2022-11-24T01:30:58.766Z,91.61
2022-11-24T01:31:58.696Z,91.57
2022-11-24T01:32:58.702Z,91.55
2022-11-24T01:33:58.738Z,91.57
2022-11-24T01:34:58.732Z,91.59
2022-11-24T01:35:58.666Z,91.63
2022-11-24T01:36:58.648Z,91.63
2022-11-24T01:37:58.681Z,91.63
2022-11-24T01:38:58.628Z,91.64
2022-11-24T01:39:58.617Z,91.62
2022-11-24T01:40:58.608Z,91.59
2022-11-24T01:41:58.611Z,91.58
2022-11-24T01:42:58.612Z,91.55
2022-11-24T01:43:58.605Z,91.55
2022-11-24T01:44:58.576Z,91.53
2022-11-24T01:45:58.672Z,91.55
2022-11-24T01:46:58.573Z,91.53
2022-11-24T01:47:58.591Z,91.54
2022-11-24T01:48:58.534Z,91.56
2022-11-24T01:49:58.520Z,91.57
2022-11-24T01:50:58.550Z,91.52
2022-11-24T01:51:58.519Z,91.46
2022-11-24T01:52:58.492Z,91.37
2022-11-24T01:53:58.559Z,91.30
2022-11-24T01:54:58.492Z,91.27
2022-11-24T01:55:58.466Z,91.23
2022-11-24T01:56:58.462Z,91.21
2022-11-24T01:57:58.461Z,91.15
2022-11-24T01:58:58.432Z,91.04
2022-11-24T01:59:58.478Z,90.98
2022-11-24T02:00:58.493Z,90.91
2022-11-24T02:01:58.475Z,90.83
2022-11-24T02:02:58.463Z,90.78
2022-11-24T02:03:58.393Z,90.76
2022-11-24T02:04:58.371Z,90.72
2022-11-24T02:05:58.380Z,90.64
2022-11-24T02:06:58.407Z,90.59
2022-11-24T02:07:58.364Z,90.57
2022-11-24T02:08:58.333Z,90.45
2022-11-24T02:09:58.335Z,90.31
2022-11-24T02:10:58.355Z,90.17
2022-11-24T02:11:58.321Z,90.05
2022-11-24T02:12:58.309Z,89.90
2022-11-24T02:13:58.286Z,89.81
2022-11-24T02:14:58.282Z,89.77
2022-11-24T02:15:58.330Z,89.80
2022-11-24T02:16:58.272Z,89.80
2022-11-24T02:17:58.251Z,89.88
2022-11-24T02:18:58.239Z,89.91
2022-11-24T02:19:58.298Z,89.90
2022-11-24T02:20:58.209Z,89.97
2022-11-24T02:21:58.275Z,89.96
2022-11-24T02:22:58.261Z,89.99
2022-11-24T02:23:58.191Z,89.99
2022-11-24T02:24:58.209Z,89.95
2022-11-24T02:25:58.181Z,89.97
2022-11-24T02:26:58.189Z,89.97
2022-11-24T02:27:58.276Z,90.03
2022-11-24T02:28:58.163Z,90.01
2022-11-24T02:29:58.206Z,89.89
2022-11-24T02:30:58.207Z,89.83
2022-11-24T02:31:58.149Z,89.80
2022-11-24T02:32:58.128Z,89.76
2022-11-24T02:33:58.100Z,89.74
2022-11-24T02:34:58.096Z,89.66
2022-11-24T02:35:58.071Z,89.61
2022-11-24T02:36:58.164Z,89.60
2022-11-24T02:37:58.056Z,89.61
2022-11-24T02:38:58.047Z,89.58
2022-11-24T02:39:58.046Z,89.58
2022-11-24T02:40:58.051Z,89.63
2022-11-24T02:41:58.042Z,89.72
2022-11-24T02:42:58.017Z,89.90
2022-11-24T02:43:57.993Z,90.11
2022-11-24T02:44:58.009Z,90.22
2022-11-24T02:45:58.031Z,90.19
2022-11-24T02:46:57.966Z,90.20
2022-11-24T02:47:58.015Z,90.27
2022-11-24T02:48:57.981Z,90.33
2022-11-24T02:49:57.933Z,90.46
2022-11-24T02:50:57.941Z,90.60
2022-11-24T02:51:57.931Z,90.72
2022-11-24T02:52:57.983Z,90.77
2022-11-24T02:53:57.926Z,90.89
2022-11-24T02:54:57.922Z,90.96
2022-11-24T02:55:57.898Z,91.01
2022-11-24T02:56:57.868Z,91.08
2022-11-24T02:57:57.853Z,91.12
2022-11-24T02:58:57.890Z,91.13
2022-11-24T02:59:57.834Z,91.16
2022-11-24T03:00:57.872Z,91.23
2022-11-24T03:01:57.917Z,91.28
2022-11-24T03:02:57.857Z,91.30
2022-11-24T03:03:57.827Z,91.36
2022-11-24T03:04:57.793Z,91.38
2022-11-24T03:05:57.806Z,91.40
2022-11-24T03:06:57.800Z,91.42
2022-11-24T03:07:57.769Z,91.43
2022-11-24T03:08:57.791Z,91.45
2022-11-24T03:09:57.734Z,91.52
2022-11-24T03:10:57.758Z,91.53
2022-11-24T03:11:57.760Z,91.51
2022-11-24T03:12:57.742Z,91.50
2022-11-24T03:13:57.717Z,91.47
2022-11-24T03:14:57.685Z,91.45
2022-11-24T03:15:57.709Z,91.45
2022-11-24T03:16:57.698Z,91.51
2022-11-24T03:17:57.656Z,91.59
2022-11-24T03:18:57.645Z,91.65
2022-11-24T03:20:01.518Z,91.68
2022-11-24T03:20:57.664Z,91.67
2022-11-24T03:21:57.610Z,91.66
2022-11-24T03:22:57.649Z,91.65
2022-11-24T03:23:57.620Z,91.65
2022-11-24T03:24:57.591Z,91.67
2022-11-24T03:25:57.576Z,91.72
2022-11-24T03:26:57.582Z,91.75
2022-11-24T03:27:57.651Z,91.77
2022-11-24T03:28:57.612Z,91.80
2022-11-24T03:29:57.578Z,91.80
2022-11-24T03:30:57.628Z,91.81
2022-11-24T03:31:57.515Z,91.83
2022-11-24T03:32:57.549Z,91.85
2022-11-24T03:33:57.543Z,91.87
2022-11-24T03:34:57.529Z,91.86
2022-11-24T03:35:57.484Z,91.84
2022-11-24T03:36:57.499Z,91.81
2022-11-24T03:37:57.474Z,91.83
2022-11-24T03:38:57.456Z,91.89
2022-11-24T03:39:57.473Z,91.99
2022-11-24T03:40:57.436Z,92.02
2022-11-24T03:41:57.459Z,92.05
2022-11-24T03:42:57.446Z,92.09
2022-11-24T03:43:57.449Z,92.14
2022-11-24T03:44:57.430Z,92.19
2022-11-24T03:45:57.406Z,92.19
2022-11-24T03:46:57.388Z,92.17
2022-11-24T03:47:57.366Z,92.14
2022-11-24T03:48:57.355Z,92.10
2022-11-24T03:49:57.384Z,92.06
2022-11-24T03:50:57.343Z,92.05
2022-11-24T03:51:57.413Z,92.03
2022-11-24T03:52:57.336Z,92.02
2022-11-24T03:53:57.313Z,92.02
2022-11-24T03:54:57.366Z,92.03
2022-11-24T03:55:57.337Z,92.06
2022-11-24T03:56:57.337Z,92.05
2022-11-24T03:57:57.269Z,92.05
2022-11-24T03:58:57.263Z,92.06
2022-11-24T03:59:57.252Z,92.07
2022-11-24T04:00:57.278Z,92.05
2022-11-24T04:01:57.336Z,92.04
2022-11-24T04:02:57.317Z,92.01
2022-11-24T04:03:57.207Z,92.01
2022-11-24T04:04:57.210Z,91.97
2022-11-24T04:05:57.200Z,91.91
2022-11-24T04:06:57.210Z,91.85
2022-11-24T04:07:57.206Z,91.79
2022-11-24T04:08:57.164Z,91.79
2022-11-24T04:09:57.175Z,91.78
2022-11-24T04:10:57.155Z,91.72
2022-11-24T04:11:57.148Z,91.69
2022-11-24T04:12:57.117Z,91.64
2022-11-24T04:13:57.118Z,91.61
2022-11-24T04:14:57.109Z,91.59
2022-11-24T04:15:57.196Z,91.54
2022-11-24T04:16:57.103Z,91.48
2022-11-24T04:17:57.076Z,91.44
2022-11-24T04:18:57.072Z,91.38
2022-11-24T04:19:57.049Z,91.35
2022-11-24T04:20:57.045Z,91.33
2022-11-24T04:21:57.044Z,91.32
2022-11-24T04:22:57.031Z,91.29
2022-11-24T04:23:57.027Z,91.23
2022-11-24T04:24:56.995Z,91.18
2022-11-24T04:25:57.034Z,91.14
2022-11-24T04:26:57.028Z,91.13
2022-11-24T04:27:56.982Z,91.11
2022-11-24T04:28:56.991Z,91.06
2022-11-24T04:29:56.967Z,91.03
2022-11-24T04:30:57.157Z,91.03
2022-11-24T04:31:56.928Z,91.08
2022-11-24T04:32:56.964Z,91.12
2022-11-24T04:33:56.917Z,91.16
2022-11-24T04:34:56.908Z,91.18
2022-11-24T04:35:56.933Z,91.23
2022-11-24T04:36:56.896Z,91.24
2022-11-24T04:37:56.866Z,91.25
2022-11-24T04:39:23.540Z,91.27
2022-11-24T04:39:56.857Z,91.25
2022-11-24T04:40:56.891Z,91.26
2022-11-24T04:41:56.881Z,91.25
2022-11-24T04:42:56.848Z,91.29
2022-11-24T04:43:56.832Z,91.31
2022-11-24T04:44:56.808Z,91.33
2022-11-24T04:45:56.814Z,91.36
2022-11-24T04:46:56.813Z,91.36
2022-11-24T04:47:56.773Z,91.38
2022-11-24T04:48:56.773Z,91.36
2022-11-24T04:49:56.745Z,91.34
2022-11-24T04:50:56.788Z,91.34
2022-11-24T04:51:56.747Z,91.34
2022-11-24T04:52:56.749Z,91.37
2022-11-24T04:53:56.729Z,91.34
2022-11-24T04:54:56.710Z,91.32
2022-11-24T04:55:56.696Z,91.23
2022-11-24T04:56:56.689Z,91.18
2022-11-24T04:57:56.696Z,91.13
2022-11-24T04:58:56.763Z,91.08
2022-11-24T04:59:56.686Z,91.07
2022-11-24T05:00:56.645Z,91.06
2022-11-24T05:01:56.702Z,91.05
2022-11-24T05:02:56.625Z,91.12
2022-11-24T05:03:56.676Z,91.12
2022-11-24T05:04:56.685Z,91.14
2022-11-24T05:05:56.596Z,91.14
2022-11-24T05:06:56.598Z,91.13
2022-11-24T05:07:56.660Z,91.12
2022-11-24T05:08:56.579Z,91.12
2022-11-24T05:09:59.513Z,91.13
2022-11-24T05:10:56.565Z,91.13
2022-11-24T05:11:56.543Z,91.12
2022-11-24T05:12:56.547Z,91.13
2022-11-24T05:13:56.535Z,91.13
2022-11-24T05:14:56.536Z,91.06
2022-11-24T05:15:56.619Z,90.95
2022-11-24T05:16:56.602Z,90.89
2022-11-24T05:17:56.503Z,90.84
2022-11-24T05:18:56.497Z,90.78
2022-11-24T05:19:56.451Z,90.73
2022-11-24T05:20:56.445Z,90.62
2022-11-24T05:21:56.496Z,90.49
2022-11-24T05:22:56.457Z,90.30
2022-11-24T05:23:56.412Z,90.17
2022-11-24T05:24:56.482Z,89.99
2022-11-24T05:25:56.471Z,89.90
2022-11-24T05:26:56.438Z,89.78
2022-11-24T05:27:56.394Z,89.70
2022-11-24T05:28:56.490Z,89.61
2022-11-24T05:29:56.385Z,89.46
2022-11-24T05:30:56.389Z,89.28
2022-11-24T05:31:56.382Z,89.24
2022-11-24T05:32:56.335Z,89.31
2022-11-24T05:33:56.425Z,89.33
2022-11-24T05:34:56.349Z,89.36
2022-11-24T05:35:56.355Z,89.34
2022-11-24T05:36:56.293Z,89.20
2022-11-24T05:37:56.345Z,89.11
2022-11-24T05:38:56.278Z,89.08
2022-11-24T05:39:56.309Z,89.09
2022-11-24T05:40:56.257Z,88.98
2022-11-24T05:41:56.261Z,88.84
2022-11-24T05:42:56.248Z,88.87
2022-11-24T05:43:56.236Z,88.89
2022-11-24T05:44:56.228Z,88.98
2022-11-24T05:45:56.213Z,89.06
2022-11-24T05:46:56.261Z,89.18
2022-11-24T05:47:56.189Z,89.30
2022-11-24T05:48:56.198Z,89.40
2022-11-24T05:49:56.172Z,89.52
2022-11-24T05:50:56.151Z,89.54
2022-11-24T05:51:56.176Z,89.43
2022-11-24T05:52:56.140Z,89.37
2022-11-24T05:53:56.176Z,89.31
2022-11-24T05:54:56.122Z,89.25
2022-11-24T05:55:56.103Z,89.18
2022-11-24T05:56:56.093Z,89.10
2022-11-24T05:57:56.088Z,89.12
2022-11-24T05:58:56.028Z,89.21
2022-11-24T05:59:56.093Z,89.26
2022-11-24T06:00:56.060Z,89.29
2022-11-24T06:01:56.233Z,89.25
2022-11-24T06:02:56.062Z,89.41
2022-11-24T06:03:56.025Z,89.52
2022-11-24T06:04:56.027Z,89.52
2022-11-24T06:05:56.173Z,89.47
2022-11-24T06:06:56.132Z,89.48
2022-11-24T06:07:56.208Z,89.44
2022-11-24T06:08:55.939Z,89.50
2022-11-24T06:09:56.042Z,89.51
2022-11-24T06:10:55.927Z,89.36
2022-11-24T06:11:55.892Z,89.29
2022-11-24T06:12:55.895Z,89.33
2022-11-24T06:13:55.924Z,89.37
2022-11-24T06:14:55.892Z,89.35
2022-11-24T06:15:55.874Z,89.39
2022-11-24T06:16:55.924Z,89.37
2022-11-24T06:17:55.897Z,89.40
2022-11-24T06:18:55.918Z,89.43
2022-11-24T06:19:55.810Z,89.52
2022-11-24T06:21:10.387Z,89.60
2022-11-24T06:21:55.792Z,89.63
2022-11-24T06:22:55.837Z,89.64
2022-11-24T06:23:55.836Z,89.71
2022-11-24T06:24:55.795Z,89.80
2022-11-24T06:25:55.776Z,89.92
2022-11-24T06:26:55.787Z,89.97
2022-11-24T06:27:55.732Z,90.06
2022-11-24T06:28:55.745Z,90.13
2022-11-24T06:29:55.731Z,90.18
2022-11-24T06:30:55.749Z,90.21
2022-11-24T06:31:55.741Z,90.27
2022-11-24T06:32:55.721Z,90.30
2022-11-24T06:33:55.738Z,90.35
2022-11-24T06:34:55.682Z,90.39
2022-11-24T06:35:55.668Z,90.35
2022-11-24T06:36:55.655Z,90.35
2022-11-24T06:37:55.704Z,90.34
2022-11-24T06:38:55.635Z,90.30
2022-11-24T06:39:55.621Z,90.24
2022-11-24T06:40:55.613Z,90.18
2022-11-24T06:41:55.617Z,90.09
2022-11-24T06:42:55.578Z,90.03
2022-11-24T06:43:55.567Z,90.01
2022-11-24T06:44:55.587Z,89.96
2022-11-24T06:45:55.636Z,89.91
2022-11-24T06:46:55.561Z,89.79
2022-11-24T06:47:55.581Z,89.72
2022-11-24T06:48:55.525Z,89.65
2022-11-24T06:49:55.506Z,89.57
2022-11-24T06:50:55.601Z,89.54
2022-11-24T06:51:55.495Z,89.38
2022-11-24T06:52:55.498Z,89.32
2022-11-24T06:53:55.517Z,89.34
2022-11-24T06:54:55.507Z,89.30
2022-11-24T06:55:55.462Z,89.27
2022-11-24T06:56:55.648Z,89.28
2022-11-24T06:57:55.487Z,89.26
2022-11-24T06:58:55.467Z,89.27
2022-11-24T06:59:55.442Z,89.23
2022-11-24T07:00:55.536Z,89.24
2022-11-24T07:01:55.442Z,89.21
2022-11-24T07:02:55.448Z,89.20
2022-11-24T07:03:55.398Z,89.14
2022-11-24T07:04:55.432Z,89.10
2022-11-24T07:05:55.378Z,89.06
2022-11-24T07:06:55.382Z,89.02
2022-11-24T07:07:55.374Z,89.01
2022-11-24T07:08:55.336Z,88.98
2022-11-24T07:09:55.331Z,89.02
2022-11-24T07:10:55.302Z,89.05
2022-11-24T07:11:55.312Z,89.06
2022-11-24T07:12:55.333Z,89.06
2022-11-24T07:13:59.867Z,89.00
2022-11-24T07:14:55.299Z,88.92
2022-11-24T07:15:55.274Z,88.86
2022-11-24T07:16:55.261Z,88.76
2022-11-24T07:17:55.238Z,88.71
2022-11-24T07:18:55.253Z,88.65
2022-11-24T07:19:55.224Z,88.59
2022-11-24T07:20:55.235Z,88.52
2022-11-24T07:21:55.290Z,88.42
2022-11-24T07:22:55.189Z,88.34
2022-11-24T07:23:55.187Z,88.20
2022-11-24T07:24:55.160Z,88.16
2022-11-24T07:25:55.172Z,88.09
2022-11-24T07:26:55.178Z,88.10
2022-11-24T07:27:55.139Z,88.19
2022-11-24T07:28:55.140Z,88.17
2022-11-24T07:29:55.157Z,88.16
2022-11-24T07:30:55.102Z,88.11
2022-11-24T07:31:55.179Z,87.99
2022-11-24T07:32:55.109Z,88.00
2022-11-24T07:33:55.133Z,87.99
2022-11-24T07:34:55.125Z,87.99
2022-11-24T07:35:55.072Z,87.95
2022-11-24T07:36:55.048Z,87.99
2022-11-24T07:37:55.656Z,88.03
2022-11-24T07:38:55.031Z,88.07
2022-11-24T07:39:55.016Z,88.12
2022-11-24T07:40:55.127Z,88.06
2022-11-24T07:41:55.024Z,88.03
2022-11-24T07:42:54.984Z,88.06
2022-11-24T07:43:55.009Z,88.06
2022-11-24T07:44:54.971Z,88.07
2022-11-24T07:45:55.032Z,88.01
2022-11-24T07:46:54.983Z,88.15
2022-11-24T07:47:54.954Z,88.09
2022-11-24T07:48:54.918Z,88.10
2022-11-24T07:49:54.926Z,88.02
2022-11-24T07:50:56.285Z,87.93
2022-11-24T07:51:54.965Z,87.94
2022-11-24T07:52:54.901Z,87.90
2022-11-24T07:53:54.889Z,87.88
2022-11-24T07:54:54.890Z,87.84
2022-11-24T07:55:54.900Z,87.89
2022-11-24T07:56:54.861Z,87.82
2022-11-24T07:57:54.852Z,87.80
2022-11-24T07:58:54.846Z,87.86
2022-11-24T07:59:54.846Z,87.86
2022-11-24T08:00:54.803Z,87.87
2022-11-24T08:01:54.856Z,87.76
2022-11-24T08:02:54.819Z,87.74
2022-11-24T08:03:54.871Z,87.62
2022-11-24T08:04:54.764Z,87.56
2022-11-24T08:06:22.475Z,87.55
2022-11-24T08:06:54.867Z,87.52
2022-11-24T08:07:54.820Z,87.67
2022-11-24T08:08:54.724Z,87.74
2022-11-24T08:09:54.726Z,87.72
2022-11-24T08:10:54.746Z,87.82
2022-11-24T08:11:54.712Z,87.88
2022-11-24T08:12:54.746Z,87.98
2022-11-24T08:13:54.677Z,88.09
2022-11-24T08:14:54.680Z,88.02
2022-11-24T08:15:54.685Z,88.09
2022-11-24T08:16:54.736Z,88.14
2022-11-24T08:17:54.677Z,88.16
2022-11-24T08:18:54.658Z,88.19
2022-11-24T08:19:54.644Z,88.29
2022-11-24T08:20:54.679Z,88.37
2022-11-24T08:21:54.652Z,88.40
2022-11-24T08:22:54.628Z,88.42
2022-11-24T08:23:54.601Z,88.42
2022-11-24T08:24:54.581Z,88.40
2022-11-24T08:25:56.998Z,88.46
2022-11-24T08:26:54.596Z,88.53
2022-11-24T08:27:54.562Z,88.52
2022-11-24T08:28:54.555Z,88.49
2022-11-24T08:29:54.516Z,88.45
2022-11-24T08:30:54.513Z,88.39
2022-11-24T08:31:55.111Z,88.43
2022-11-24T08:32:54.544Z,88.40
2022-11-24T08:33:54.493Z,88.43
2022-11-24T08:34:59.686Z,88.36
2022-11-24T08:35:54.463Z,88.16
2022-11-24T08:36:54.466Z,88.22
2022-11-24T08:37:54.435Z,88.26
2022-11-24T08:38:54.474Z,88.28
2022-11-24T08:39:54.448Z,88.38
2022-11-24T08:40:54.429Z,88.38
2022-11-24T08:41:54.479Z,88.41
2022-11-24T08:42:54.408Z,88.35
2022-11-24T08:43:54.387Z,88.39
2022-11-24T08:44:59.043Z,88.34
2022-11-24T08:45:54.413Z,88.35
2022-11-24T08:46:54.455Z,88.37
2022-11-24T08:47:54.352Z,88.39
2022-11-24T08:48:54.361Z,88.36
2022-11-24T08:49:54.327Z,88.47
2022-11-24T08:50:54.320Z,88.55
2022-11-24T08:51:54.304Z,88.54
2022-11-24T08:52:54.311Z,88.58
2022-11-24T08:53:54.309Z,88.55
2022-11-24T08:54:54.296Z,88.58
2022-11-24T08:55:54.261Z,88.49
2022-11-24T08:56:54.254Z,88.51
2022-11-24T08:57:54.289Z,88.54
2022-11-24T08:58:54.283Z,88.47
2022-11-24T08:59:54.255Z,88.07
2022-11-24T09:00:54.286Z,88.04
2022-11-24T09:01:54.305Z,88.23
2022-11-24T09:02:54.198Z,88.27
2022-11-24T09:03:54.246Z,88.26
2022-11-24T09:04:54.257Z,88.26
2022-11-24T09:05:54.154Z,88.20
2022-11-24T09:06:54.161Z,87.65
2022-11-24T09:07:54.213Z,87.58
2022-11-24T09:08:54.146Z,87.59
2022-11-24T09:09:54.124Z,87.81
2022-11-24T09:10:54.137Z,87.84
2022-11-24T09:11:54.135Z,87.93
2022-11-24T09:12:54.114Z,87.76
2022-11-24T09:13:54.080Z,87.82
2022-11-24T09:14:54.071Z,87.93
2022-11-24T09:15:54.111Z,87.92
2022-11-24T09:16:54.114Z,87.87
2022-11-24T09:17:54.136Z,87.90
2022-11-24T09:18:54.027Z,87.99
2022-11-24T09:19:54.038Z,88.16
2022-11-24T09:20:54.058Z,88.15
2022-11-24T09:21:54.083Z,88.21
2022-11-24T09:22:54.003Z,88.18
2022-11-24T09:23:54.006Z,88.26
2022-11-24T09:24:53.973Z,88.30
2022-11-24T09:25:53.992Z,88.15
2022-11-24T09:26:53.961Z,88.06
2022-11-24T09:27:53.975Z,87.90
2022-11-24T09:28:53.977Z,87.47
2022-11-24T09:29:53.930Z,87.34
2022-11-24T09:30:53.973Z,87.18
2022-11-24T09:31:53.915Z,86.75
2022-11-24T09:32:53.942Z,86.79
2022-11-24T09:33:53.933Z,86.80
2022-11-24T09:34:53.886Z,86.93
2022-11-24T09:35:53.964Z,86.95
2022-11-24T09:36:53.877Z,87.04
2022-11-24T09:37:53.861Z,86.97
2022-11-24T09:38:53.879Z,86.86
2022-11-24T09:39:53.832Z,86.78
2022-11-24T09:40:55.051Z,86.85
2022-11-24T09:41:53.822Z,86.93
2022-11-24T09:42:53.934Z,86.97
2022-11-24T09:43:53.818Z,86.99
2022-11-24T09:44:53.795Z,87.10
2022-11-24T09:46:09.122Z,86.92
2022-11-24T09:46:53.803Z,86.73
2022-11-24T09:47:53.809Z,86.56
2022-11-24T09:48:53.740Z,86.46
2022-11-24T09:49:53.753Z,86.49
2022-11-24T09:50:53.750Z,86.30
2022-11-24T09:51:53.702Z,86.03
2022-11-24T09:52:53.698Z,86.17
2022-11-24T09:53:53.708Z,86.41
2022-11-24T09:54:53.697Z,86.43
2022-11-24T09:55:53.684Z,86.27
2022-11-24T09:56:53.651Z,86.44
2022-11-24T09:57:53.656Z,86.40
2022-11-24T09:58:53.667Z,86.14
2022-11-24T09:59:53.621Z,86.24
2022-11-24T10:00:53.609Z,85.98
2022-11-24T10:01:53.698Z,85.98
2022-11-24T10:02:53.617Z,85.81
2022-11-24T10:03:53.603Z,86.24
2022-11-24T10:04:53.653Z,85.93
2022-11-24T10:05:53.613Z,85.65
2022-11-24T10:06:53.570Z,85.25
2022-11-24T10:07:53.637Z,84.53
2022-11-24T10:08:53.656Z,84.57
2022-11-24T10:09:53.534Z,83.33
2022-11-24T10:10:53.556Z,83.36
2022-11-24T10:11:53.503Z,83.16
2022-11-24T10:12:53.486Z,83.33
2022-11-24T10:13:53.507Z,83.19
2022-11-24T10:14:53.467Z,82.62
2022-11-24T10:15:53.567Z,82.89
2022-11-24T10:16:53.456Z,82.28
2022-11-24T10:17:53.442Z,82.19
2022-11-24T10:18:53.442Z,82.75
2022-11-24T10:19:53.425Z,82.69
2022-11-24T10:20:53.409Z,83.16
2022-11-24T10:21:53.413Z,83.32
2022-11-24T10:22:53.389Z,83.00
2022-11-24T10:23:53.435Z,82.55
2022-11-24T10:24:53.443Z,82.66
2022-11-24T10:25:53.372Z,82.56
2022-11-24T10:26:53.347Z,81.95
2022-11-24T10:27:53.434Z,81.46
2022-11-24T10:28:53.332Z,81.60
2022-11-24T10:29:53.342Z,81.65
2022-11-24T10:30:53.341Z,82.35
2022-11-24T10:31:53.309Z,82.76
2022-11-24T10:32:53.307Z,82.27
2022-11-24T10:33:53.293Z,82.20
2022-11-24T10:34:53.290Z,81.27
2022-11-24T10:35:53.285Z,80.46
2022-11-24T10:36:53.358Z,80.71
2022-11-24T10:37:53.243Z,80.97
2022-11-24T10:38:53.223Z,81.05
2022-11-24T10:39:58.565Z,80.57
2022-11-24T10:40:57.705Z,80.99
2022-11-24T10:41:53.201Z,81.09
2022-11-24T10:42:53.215Z,81.07
2022-11-24T10:43:53.182Z,80.52
2022-11-24T10:44:53.187Z,81.07
2022-11-24T10:45:53.219Z,80.90
2022-11-24T10:46:53.263Z,81.59
2022-11-24T10:47:53.137Z,81.40
2022-11-24T10:48:53.160Z,81.18
2022-11-24T10:49:53.130Z,81.29
2022-11-24T10:50:53.116Z,81.49
2022-11-24T10:51:53.100Z,81.55
2022-11-24T10:52:53.087Z,81.78
2022-11-24T10:53:53.086Z,81.76
2022-11-24T10:54:53.092Z,81.86
2022-11-24T10:55:53.088Z,81.57
2022-11-24T10:56:53.055Z,81.46
2022-11-24T10:57:53.076Z,81.49
2022-11-24T10:58:53.045Z,81.07
2022-11-24T10:59:53.020Z,80.96
2022-11-24T11:00:53.002Z,81.17
2022-11-24T11:01:53.226Z,81.55
2022-11-24T11:02:53.033Z,81.32
2022-11-24T11:03:52.999Z,81.10
2022-11-24T11:04:52.998Z,81.18
2022-11-24T11:05:52.955Z,81.32
2022-11-24T11:06:52.961Z,81.29
2022-11-24T11:07:53.020Z,81.31
2022-11-24T11:08:52.957Z,81.15
2022-11-24T11:09:53.018Z,81.03
2022-11-24T11:10:52.969Z,81.17
2022-11-24T11:11:53.013Z,80.90
2022-11-24T11:12:52.926Z,80.48
2022-11-24T11:13:55.711Z,80.63
2022-11-24T11:14:53.049Z,80.47
2022-11-24T11:15:52.981Z,80.82
2022-11-24T11:16:52.913Z,81.02
2022-11-24T11:17:52.913Z,81.11
2022-11-24T11:18:52.883Z,81.17
2022-11-24T11:19:58.634Z,81.75
2022-11-24T11:20:52.906Z,81.59
2022-11-24T11:21:52.846Z,81.54
2022-11-24T11:22:52.827Z,81.75
2022-11-24T11:23:52.849Z,82.01
2022-11-24T11:24:52.800Z,82.05
2022-11-24T11:25:52.775Z,82.08
2022-11-24T11:26:52.788Z,82.54
2022-11-24T11:27:52.811Z,82.40
2022-11-24T11:28:52.832Z,81.93
2022-11-24T11:34:10.681Z,82.08
2022-11-24T11:34:52.705Z,81.41
2022-11-24T11:35:52.738Z,81.38
2022-11-24T11:36:52.696Z,81.02
2022-11-24T11:37:52.696Z,81.07
2022-11-24T11:38:52.662Z,80.83
2022-11-24T11:39:52.671Z,80.84
2022-11-24T11:40:52.656Z,80.88
2022-11-24T11:41:52.633Z,80.75
2022-11-24T11:43:08.049Z,80.66
2022-11-24T11:43:52.646Z,80.89
2022-11-24T11:44:52.595Z,80.77
2022-11-24T11:45:52.686Z,80.36
2022-11-24T11:46:52.661Z,80.44
2022-11-24T11:47:52.585Z,80.59
2022-11-24T11:48:52.591Z,80.55
2022-11-24T11:49:52.636Z,80.69
2022-11-24T11:51:21.741Z,80.93
2022-11-24T11:51:52.548Z,80.54
2022-11-24T11:52:52.518Z,81.22
2022-11-24T11:53:52.672Z,81.89
2022-11-24T11:54:52.528Z,82.17
2022-11-24T11:55:52.522Z,82.47
2022-11-24T11:56:52.475Z,82.29
2022-11-24T11:57:52.483Z,82.22
2022-11-24T11:58:52.458Z,82.70
2022-11-24T11:59:52.414Z,82.91
2022-11-24T12:00:52.407Z,83.02
2022-11-24T12:01:52.412Z,83.11
2022-11-24T12:02:53.942Z,83.06
2022-11-24T12:03:52.485Z,82.99
2022-11-24T12:04:52.433Z,82.88
2022-11-24T12:05:52.346Z,83.47
2022-11-24T12:06:52.391Z,83.95
2022-11-24T12:07:52.413Z,84.49
2022-11-24T12:09:18.642Z,84.55
2022-11-24T12:09:52.341Z,84.94
2022-11-24T12:10:52.300Z,85.23
2022-11-24T12:11:52.282Z,85.39
2022-11-24T12:12:52.357Z,85.60
2022-11-24T12:13:52.273Z,85.57
2022-11-24T12:14:52.303Z,85.68
2022-11-24T12:15:52.284Z,86.29
2022-11-24T12:16:52.242Z,86.41
2022-11-24T12:17:52.308Z,86.65
2022-11-24T12:18:59.538Z,86.89
2022-11-24T12:19:52.235Z,87.00
2022-11-24T12:20:52.199Z,87.07
2022-11-24T12:21:52.277Z,87.13
2022-11-24T12:22:52.203Z,86.75
2022-11-24T12:23:52.211Z,86.72
2022-11-24T12:24:52.190Z,86.51
2022-11-24T12:25:52.174Z,86.52
2022-11-24T12:26:52.193Z,86.51
2022-11-24T12:27:52.134Z,86.58
2022-11-24T12:28:52.206Z,86.67
2022-11-24T12:29:52.146Z,86.76
2022-11-24T12:30:52.183Z,86.60
2022-11-24T12:31:52.136Z,86.19
2022-11-24T12:32:52.102Z,85.80
2022-11-24T12:33:55.357Z,85.50
2022-11-24T12:34:52.085Z,86.00
2022-11-24T12:35:52.078Z,85.93
2022-11-24T12:36:52.069Z,86.16
2022-11-24T12:37:52.026Z,85.92
2022-11-24T12:38:52.045Z,85.93
2022-11-24T12:39:52.013Z,85.69
2022-11-24T12:40:58.048Z,85.65
2022-11-24T12:41:52.005Z,85.41
2022-11-24T12:42:51.981Z,85.52
2022-11-24T12:43:51.989Z,85.40
2022-11-24T12:44:51.950Z,85.51
2022-11-24T12:45:51.990Z,85.46
2022-11-24T12:46:51.995Z,85.06
2022-11-24T12:47:51.930Z,84.93
2022-11-24T12:48:51.967Z,85.21
2022-11-24T12:49:51.922Z,85.25
2022-11-24T12:50:51.896Z,85.57
2022-11-24T12:51:51.897Z,85.15
2022-11-24T12:52:58.470Z,85.42
2022-11-24T12:53:51.905Z,85.30
2022-11-24T12:54:51.850Z,85.32
2022-11-24T12:55:51.897Z,85.34
2022-11-24T12:56:51.845Z,85.17